sensor_id;sensor_type;location;lat;lon;timestamp;P1;durP1;ratioP1;P2;durP2;ratioP2
4527;SDS011;62320;51.520;6.818;2022-08-30T00:03:46;4.30;;;2.90;;
4527;SDS011;62320;51.520;6.818;2022-08-30T00:08:49;10.57;;;2.70;;
4527;SDS011;62320;51.520;6.818;2022-08-30T00:13:52;3.00;;;2.50;;
4527;SDS011;62320;51.520;6.818;2022-08-30T00:18:54;4.97;;;2.65;;
4527;SDS011;62320;51.520;6.818;2022-08-30T00:23:58;5.10;;;2.75;;
4527;SDS011;62320;51.520;6.818;2022-08-30T00:29:00;5.60;;;2.55;;
4527;SDS011;62320;51.520;6.818;2022-08-30T00:34:01;4.13;;;2.50;;
4527;SDS011;62320;51.520;6.818;2022-08-30T00:39:03;5.00;;;2.88;;
4527;SDS011;62320;51.520;6.818;2022-08-30T00:44:05;3.40;;;2.58;;
4527;SDS011;62320;51.520;6.818;2022-08-30T00:49:08;3.30;;;2.70;;
4527;SDS011;62320;51.520;6.818;2022-08-30T00:54:12;4.32;;;2.47;;
4527;SDS011;62320;51.520;6.818;2022-08-30T00:59:14;3.22;;;2.40;;
4527;SDS011;62320;51.520;6.818;2022-08-30T01:04:16;5.05;;;2.70;;
4527;SDS011;62320;51.520;6.818;2022-08-30T01:09:22;3.25;;;2.50;;
4527;SDS011;62320;51.520;6.818;2022-08-30T01:14:24;3.85;;;2.30;;
4527;SDS011;62320;51.520;6.818;2022-08-30T01:24:38;5.35;;;2.55;;
4527;SDS011;62320;51.520;6.818;2022-08-30T01:29:40;3.00;;;2.35;;
4527;SDS011;62320;51.520;6.818;2022-08-30T01:34:45;3.28;;;2.55;;
4527;SDS011;62320;51.520;6.818;2022-08-30T01:39:48;6.32;;;2.65;;
4527;SDS011;62320;51.520;6.818;2022-08-30T01:44:50;4.78;;;3.22;;
4527;SDS011;62320;51.520;6.818;2022-08-30T01:49:52;4.18;;;2.42;;
4527;SDS011;62320;51.520;6.818;2022-08-30T01:54:53;6.00;;;2.85;;
4527;SDS011;62320;51.520;6.818;2022-08-30T01:59:54;3.10;;;2.70;;
4527;SDS011;62320;51.520;6.818;2022-08-30T02:04:56;6.13;;;2.90;;
4527;SDS011;62320;51.520;6.818;2022-08-30T02:09:58;3.42;;;2.65;;
4527;SDS011;62320;51.520;6.818;2022-08-30T02:15:00;4.78;;;2.60;;
4527;SDS011;62320;51.520;6.818;2022-08-30T02:20:02;4.10;;;2.47;;
4527;SDS011;62320;51.520;6.818;2022-08-30T02:25:05;3.90;;;2.58;;
4527;SDS011;62320;51.520;6.818;2022-08-30T02:30:21;2.72;;;2.30;;
4527;SDS011;62320;51.520;6.818;2022-08-30T02:35:22;3.78;;;2.72;;
4527;SDS011;62320;51.520;6.818;2022-08-30T02:40:24;5.57;;;2.80;;
4527;SDS011;62320;51.520;6.818;2022-08-30T02:45:26;4.45;;;2.30;;
4527;SDS011;62320;51.520;6.818;2022-08-30T02:50:28;4.72;;;2.72;;
4527;SDS011;62320;51.520;6.818;2022-08-30T02:55:30;5.45;;;2.67;;
4527;SDS011;62320;51.520;6.818;2022-08-30T03:00:31;5.88;;;2.85;;
4527;SDS011;62320;51.520;6.818;2022-08-30T03:05:32;4.00;;;2.55;;
4527;SDS011;62320;51.520;6.818;2022-08-30T03:10:38;4.70;;;3.00;;
4527;SDS011;62320;51.520;6.818;2022-08-30T03:15:39;3.60;;;2.53;;
4527;SDS011;62320;51.520;6.818;2022-08-30T03:20:40;4.40;;;3.20;;
4527;SDS011;62320;51.520;6.818;2022-08-30T03:25:46;4.07;;;3.30;;
4527;SDS011;62320;51.520;6.818;2022-08-30T03:30:47;4.45;;;2.92;;
4527;SDS011;62320;51.520;6.818;2022-08-30T03:35:49;4.95;;;2.95;;
4527;SDS011;62320;51.520;6.818;2022-08-30T03:40:50;5.50;;;3.05;;
4527;SDS011;62320;51.520;6.818;2022-08-30T03:45:52;7.10;;;3.33;;
4527;SDS011;62320;51.520;6.818;2022-08-30T03:50:53;6.78;;;4.18;;
4527;SDS011;62320;51.520;6.818;2022-08-30T03:55:55;4.40;;;3.05;;
4527;SDS011;62320;51.520;6.818;2022-08-30T04:00:57;5.53;;;3.22;;
4527;SDS011;62320;51.520;6.818;2022-08-30T04:05:59;5.25;;;3.05;;
4527;SDS011;62320;51.520;6.818;2022-08-30T04:11:01;4.70;;;3.33;;
4527;SDS011;62320;51.520;6.818;2022-08-30T04:16:05;4.28;;;3.42;;
4527;SDS011;62320;51.520;6.818;2022-08-30T04:21:06;6.55;;;3.97;;
4527;SDS011;62320;51.520;6.818;2022-08-30T04:26:14;8.02;;;4.03;;
4527;SDS011;62320;51.520;6.818;2022-08-30T04:31:16;7.95;;;4.07;;
4527;SDS011;62320;51.520;6.818;2022-08-30T04:36:19;5.30;;;4.15;;
4527;SDS011;62320;51.520;6.818;2022-08-30T04:41:38;7.28;;;4.07;;
4527;SDS011;62320;51.520;6.818;2022-08-30T04:46:40;5.00;;;3.72;;
4527;SDS011;62320;51.520;6.818;2022-08-30T04:51:45;4.10;;;3.42;;
4527;SDS011;62320;51.520;6.818;2022-08-30T04:56:46;5.38;;;3.80;;
4527;SDS011;62320;51.520;6.818;2022-08-30T05:01:48;5.50;;;3.90;;
4527;SDS011;62320;51.520;6.818;2022-08-30T05:06:49;9.55;;;4.45;;
4527;SDS011;62320;51.520;6.818;2022-08-30T05:11:51;10.68;;;4.70;;
4527;SDS011;62320;51.520;6.818;2022-08-30T05:16:52;13.98;;;5.05;;
4527;SDS011;62320;51.520;6.818;2022-08-30T05:21:54;11.35;;;5.18;;
4527;SDS011;62320;51.520;6.818;2022-08-30T05:26:55;6.60;;;4.13;;
4527;SDS011;62320;51.520;6.818;2022-08-30T05:31:57;10.00;;;5.50;;
4527;SDS011;62320;51.520;6.818;2022-08-30T05:36:59;10.90;;;4.53;;
4527;SDS011;62320;51.520;6.818;2022-08-30T05:42:02;13.27;;;4.20;;
4527;SDS011;62320;51.520;6.818;2022-08-30T05:47:04;6.80;;;3.80;;
4527;SDS011;62320;51.520;6.818;2022-08-30T05:52:06;21.83;;;7.93;;
4527;SDS011;62320;51.520;6.818;2022-08-30T05:57:07;15.07;;;5.50;;
4527;SDS011;62320;51.520;6.818;2022-08-30T06:02:08;40.10;;;11.57;;
4527;SDS011;62320;51.520;6.818;2022-08-30T06:07:10;15.90;;;5.50;;
4527;SDS011;62320;51.520;6.818;2022-08-30T06:12:15;34.70;;;17.60;;
4527;SDS011;62320;51.520;6.818;2022-08-30T06:17:17;11.25;;;6.57;;
4527;SDS011;62320;51.520;6.818;2022-08-30T06:22:18;7.60;;;3.97;;
4527;SDS011;62320;51.520;6.818;2022-08-30T06:27:20;7.82;;;3.90;;
4527;SDS011;62320;51.520;6.818;2022-08-30T06:32:21;8.85;;;4.25;;
4527;SDS011;62320;51.520;6.818;2022-08-30T06:37:23;5.18;;;3.42;;
4527;SDS011;62320;51.520;6.818;2022-08-30T06:42:31;7.45;;;4.22;;
4527;SDS011;62320;51.520;6.818;2022-08-30T06:47:33;6.93;;;4.10;;
4527;SDS011;62320;51.520;6.818;2022-08-30T06:52:35;7.65;;;3.95;;
4527;SDS011;62320;51.520;6.818;2022-08-30T06:57:36;9.20;;;3.78;;
4527;SDS011;62320;51.520;6.818;2022-08-30T07:02:39;5.68;;;3.40;;
4527;SDS011;62320;51.520;6.818;2022-08-30T07:07:41;3.70;;;1.85;;
4527;SDS011;62320;51.520;6.818;2022-08-30T07:12:42;5.78;;;3.05;;
4527;SDS011;62320;51.520;6.818;2022-08-30T07:17:44;5.95;;;3.38;;
4527;SDS011;62320;51.520;6.818;2022-08-30T07:23:04;5.43;;;3.37;;
4527;SDS011;62320;51.520;6.818;2022-08-30T07:28:06;4.43;;;2.63;;
4527;SDS011;62320;51.520;6.818;2022-08-30T07:33:09;3.35;;;2.45;;
4527;SDS011;62320;51.520;6.818;2022-08-30T07:38:11;6.32;;;2.20;;
4527;SDS011;62320;51.520;6.818;2022-08-30T07:43:14;5.80;;;3.05;;
4527;SDS011;62320;51.520;6.818;2022-08-30T07:48:15;4.78;;;2.83;;
4527;SDS011;62320;51.520;6.818;2022-08-30T07:53:17;3.85;;;2.40;;
4527;SDS011;62320;51.520;6.818;2022-08-30T07:58:19;7.60;;;2.85;;
4527;SDS011;62320;51.520;6.818;2022-08-30T08:03:20;5.75;;;2.38;;
4527;SDS011;62320;51.520;6.818;2022-08-30T08:08:22;3.85;;;2.33;;
4527;SDS011;62320;51.520;6.818;2022-08-30T08:13:24;6.47;;;2.92;;
4527;SDS011;62320;51.520;6.818;2022-08-30T08:18:32;13.43;;;2.92;;
4527;SDS011;62320;51.520;6.818;2022-08-30T08:23:34;17.40;;;5.50;;
4527;SDS011;62320;51.520;6.818;2022-08-30T08:28:36;15.38;;;5.95;;
4527;SDS011;62320;51.520;6.818;2022-08-30T08:33:37;50.67;;;12.35;;
4527;SDS011;62320;51.520;6.818;2022-08-30T08:38:38;45.97;;;23.55;;
4527;SDS011;62320;51.520;6.818;2022-08-30T08:43:40;23.77;;;12.63;;
4527;SDS011;62320;51.520;6.818;2022-08-30T08:48:46;9.77;;;3.70;;
4527;SDS011;62320;51.520;6.818;2022-08-30T08:54:05;5.40;;;3.17;;
4527;SDS011;62320;51.520;6.818;2022-08-30T08:59:15;8.35;;;2.92;;
4527;SDS011;62320;51.520;6.818;2022-08-30T09:04:19;3.83;;;2.22;;
4527;SDS011;62320;51.520;6.818;2022-08-30T09:09:25;14.50;;;1.95;;
4527;SDS011;62320;51.520;6.818;2022-08-30T09:14:38;4.32;;;2.33;;
4527;SDS011;62320;51.520;6.818;2022-08-30T09:20:04;5.45;;;2.03;;
4527;SDS011;62320;51.520;6.818;2022-08-30T09:35:35;3.55;;;1.85;;
4527;SDS011;62320;51.520;6.818;2022-08-30T09:40:43;6.53;;;1.88;;
4527;SDS011;62320;51.520;6.818;2022-08-30T09:45:48;7.50;;;2.22;;
4527;SDS011;62320;51.520;6.818;2022-08-30T10:01:41;5.82;;;1.98;;
4527;SDS011;62320;51.520;6.818;2022-08-30T10:07:00;5.68;;;2.10;;
4527;SDS011;62320;51.520;6.818;2022-08-30T10:22:50;2.60;;;1.50;;
4527;SDS011;62320;51.520;6.818;2022-08-30T10:28:03;4.25;;;1.90;;
4527;SDS011;62320;51.520;6.818;2022-08-30T10:38:30;10.32;;;3.88;;
4527;SDS011;62320;51.520;6.818;2022-08-30T10:48:57;34.65;;;9.73;;
4527;SDS011;62320;51.520;6.818;2022-08-30T10:54:09;58.70;;;15.32;;
4527;SDS011;62320;51.520;6.818;2022-08-30T10:59:19;6.10;;;1.52;;
4527;SDS011;62320;51.520;6.818;2022-08-30T11:05:05;3.30;;;1.85;;
4527;SDS011;62320;51.520;6.818;2022-08-30T11:31:50;3.58;;;1.73;;
4527;SDS011;62320;51.520;6.818;2022-08-30T11:47:57;3.63;;;1.38;;
4527;SDS011;62320;51.520;6.818;2022-08-30T11:58:45;2.80;;;1.80;;
4527;SDS011;62320;51.520;6.818;2022-08-30T12:03:54;1.80;;;1.52;;
4527;SDS011;62320;51.520;6.818;2022-08-30T12:09:01;2.78;;;1.77;;
4527;SDS011;62320;51.520;6.818;2022-08-30T12:14:08;3.03;;;1.75;;
4527;SDS011;62320;51.520;6.818;2022-08-30T12:19:32;4.35;;;1.70;;
4527;SDS011;62320;51.520;6.818;2022-08-30T12:24:35;5.53;;;1.85;;
4527;SDS011;62320;51.520;6.818;2022-08-30T12:29:48;2.92;;;1.42;;
4527;SDS011;62320;51.520;6.818;2022-08-30T12:35:00;3.25;;;2.00;;
4527;SDS011;62320;51.520;6.818;2022-08-30T12:45:10;3.80;;;2.25;;
4527;SDS011;62320;51.520;6.818;2022-08-30T12:50:25;3.72;;;1.98;;
4527;SDS011;62320;51.520;6.818;2022-08-30T12:55:29;3.72;;;2.10;;
4527;SDS011;62320;51.520;6.818;2022-08-30T13:00:35;8.10;;;1.83;;
4527;SDS011;62320;51.520;6.818;2022-08-30T13:05:42;3.83;;;2.13;;
4527;SDS011;62320;51.520;6.818;2022-08-30T13:16:10;4.13;;;1.80;;
4527;SDS011;62320;51.520;6.818;2022-08-30T13:26:36;5.05;;;2.47;;
4527;SDS011;62320;51.520;6.818;2022-08-30T13:31:41;3.47;;;2.10;;
4527;SDS011;62320;51.520;6.818;2022-08-30T13:36:48;3.28;;;2.10;;
4527;SDS011;62320;51.520;6.818;2022-08-30T13:41:51;3.53;;;2.00;;
4527;SDS011;62320;51.520;6.818;2022-08-30T13:46:53;3.13;;;1.80;;
4527;SDS011;62320;51.520;6.818;2022-08-30T13:52:19;8.05;;;2.00;;
4527;SDS011;62320;51.520;6.818;2022-08-30T13:57:24;1.88;;;1.20;;
4527;SDS011;62320;51.520;6.818;2022-08-30T14:02:48;3.65;;;1.67;;
4527;SDS011;62320;51.520;6.818;2022-08-30T14:07:56;3.47;;;1.67;;
4527;SDS011;62320;51.520;6.818;2022-08-30T14:12:58;2.40;;;1.50;;
4527;SDS011;62320;51.520;6.818;2022-08-30T14:18:08;3.13;;;1.70;;
4527;SDS011;62320;51.520;6.818;2022-08-30T14:23:16;5.93;;;2.08;;
4527;SDS011;62320;51.520;6.818;2022-08-30T14:28:17;3.15;;;1.75;;
4527;SDS011;62320;51.520;6.818;2022-08-30T14:33:20;3.88;;;2.00;;
4527;SDS011;62320;51.520;6.818;2022-08-30T14:38:22;5.57;;;2.15;;
4527;SDS011;62320;51.520;6.818;2022-08-30T14:43:23;1.90;;;1.52;;
4527;SDS011;62320;51.520;6.818;2022-08-30T14:48:25;5.63;;;2.10;;
4527;SDS011;62320;51.520;6.818;2022-08-30T14:53:30;3.58;;;2.05;;
4527;SDS011;62320;51.520;6.818;2022-08-30T14:58:31;4.25;;;2.40;;
4527;SDS011;62320;51.520;6.818;2022-08-30T15:03:33;2.50;;;1.73;;
4527;SDS011;62320;51.520;6.818;2022-08-30T15:08:35;4.47;;;1.67;;
4527;SDS011;62320;51.520;6.818;2022-08-30T15:13:37;3.67;;;1.98;;
4527;SDS011;62320;51.520;6.818;2022-08-30T15:18:40;2.65;;;1.80;;
4527;SDS011;62320;51.520;6.818;2022-08-30T15:23:42;5.72;;;1.80;;
4527;SDS011;62320;51.520;6.818;2022-08-30T15:28:44;3.08;;;1.80;;
4527;SDS011;62320;51.520;6.818;2022-08-30T15:33:46;4.18;;;1.90;;
4527;SDS011;62320;51.520;6.818;2022-08-30T15:38:52;4.88;;;2.20;;
4527;SDS011;62320;51.520;6.818;2022-08-30T15:43:56;6.00;;;1.77;;
4527;SDS011;62320;51.520;6.818;2022-08-30T15:49:33;5.63;;;2.08;;
4527;SDS011;62320;51.520;6.818;2022-08-30T15:54:27;3.88;;;1.92;;
4527;SDS011;62320;51.520;6.818;2022-08-30T15:59:30;4.30;;;1.70;;
4527;SDS011;62320;51.520;6.818;2022-08-30T16:04:32;2.25;;;1.50;;
4527;SDS011;62320;51.520;6.818;2022-08-30T16:09:34;1.70;;;1.35;;
4527;SDS011;62320;51.520;6.818;2022-08-30T16:14:38;1.88;;;1.50;;
4527;SDS011;62320;51.520;6.818;2022-08-30T16:19:39;2.55;;;1.50;;
4527;SDS011;62320;51.520;6.818;2022-08-30T16:24:41;2.17;;;1.50;;
4527;SDS011;62320;51.520;6.818;2022-08-30T16:29:47;3.38;;;1.50;;
4527;SDS011;62320;51.520;6.818;2022-08-30T16:34:50;3.80;;;1.48;;
4527;SDS011;62320;51.520;6.818;2022-08-30T16:39:52;4.35;;;1.55;;
4527;SDS011;62320;51.520;6.818;2022-08-30T16:44:53;3.03;;;1.38;;
4527;SDS011;62320;51.520;6.818;2022-08-30T16:49:57;3.95;;;1.40;;
4527;SDS011;62320;51.520;6.818;2022-08-30T16:55:00;3.75;;;1.73;;
4527;SDS011;62320;51.520;6.818;2022-08-30T17:00:02;3.95;;;1.80;;
4527;SDS011;62320;51.520;6.818;2022-08-30T17:05:13;4.70;;;1.60;;
4527;SDS011;62320;51.520;6.818;2022-08-30T17:10:15;4.53;;;1.60;;
4527;SDS011;62320;51.520;6.818;2022-08-30T17:15:26;2.20;;;1.50;;
4527;SDS011;62320;51.520;6.818;2022-08-30T17:20:28;2.33;;;1.50;;
4527;SDS011;62320;51.520;6.818;2022-08-30T17:25:34;1.70;;;1.60;;
4527;SDS011;62320;51.520;6.818;2022-08-30T17:30:36;3.80;;;1.58;;
4527;SDS011;62320;51.520;6.818;2022-08-30T17:35:40;5.13;;;1.70;;
4527;SDS011;62320;51.520;6.818;2022-08-30T17:40:41;2.47;;;1.30;;
4527;SDS011;62320;51.520;6.818;2022-08-30T17:45:43;2.28;;;1.63;;
4527;SDS011;62320;51.520;6.818;2022-08-30T17:50:45;3.03;;;1.55;;
4527;SDS011;62320;51.520;6.818;2022-08-30T17:55:55;2.80;;;1.38;;
4527;SDS011;62320;51.520;6.818;2022-08-30T18:06:12;3.05;;;1.40;;
4527;SDS011;62320;51.520;6.818;2022-08-30T18:11:14;2.35;;;1.35;;
4527;SDS011;62320;51.520;6.818;2022-08-30T18:16:16;2.17;;;1.60;;
4527;SDS011;62320;51.520;6.818;2022-08-30T18:21:21;2.13;;;1.40;;
4527;SDS011;62320;51.520;6.818;2022-08-30T18:26:25;2.70;;;1.50;;
4527;SDS011;62320;51.520;6.818;2022-08-30T18:31:30;2.85;;;1.38;;
4527;SDS011;62320;51.520;6.818;2022-08-30T18:36:33;3.40;;;1.50;;
4527;SDS011;62320;51.520;6.818;2022-08-30T18:41:35;3.58;;;1.50;;
4527;SDS011;62320;51.520;6.818;2022-08-30T18:46:43;2.97;;;1.45;;
4527;SDS011;62320;51.520;6.818;2022-08-30T18:51:57;1.67;;;1.42;;
4527;SDS011;62320;51.520;6.818;2022-08-30T18:56:58;3.20;;;1.58;;
4527;SDS011;62320;51.520;6.818;2022-08-30T19:02:00;3.33;;;1.50;;
4527;SDS011;62320;51.520;6.818;2022-08-30T19:07:03;2.80;;;1.70;;
4527;SDS011;62320;51.520;6.818;2022-08-30T19:12:06;3.55;;;1.80;;
4527;SDS011;62320;51.520;6.818;2022-08-30T19:17:11;2.47;;;1.70;;
4527;SDS011;62320;51.520;6.818;2022-08-30T19:22:13;2.67;;;1.70;;
4527;SDS011;62320;51.520;6.818;2022-08-30T19:27:15;2.42;;;1.70;;
4527;SDS011;62320;51.520;6.818;2022-08-30T19:32:37;2.38;;;1.75;;
4527;SDS011;62320;51.520;6.818;2022-08-30T19:37:40;2.22;;;1.40;;
4527;SDS011;62320;51.520;6.818;2022-08-30T19:42:42;3.40;;;1.92;;
4527;SDS011;62320;51.520;6.818;2022-08-30T19:47:46;1.83;;;1.50;;
4527;SDS011;62320;51.520;6.818;2022-08-30T19:52:49;2.65;;;1.60;;
4527;SDS011;62320;51.520;6.818;2022-08-30T19:57:55;7.57;;;1.88;;
4527;SDS011;62320;51.520;6.818;2022-08-30T20:02:57;2.13;;;1.70;;
4527;SDS011;62320;51.520;6.818;2022-08-30T20:08:01;2.45;;;1.45;;
4527;SDS011;62320;51.520;6.818;2022-08-30T20:13:03;2.67;;;1.48;;
4527;SDS011;62320;51.520;6.818;2022-08-30T20:18:05;3.72;;;1.70;;
4527;SDS011;62320;51.520;6.818;2022-08-30T20:23:14;3.28;;;1.63;;
4527;SDS011;62320;51.520;6.818;2022-08-30T20:28:22;2.67;;;1.40;;
4527;SDS011;62320;51.520;6.818;2022-08-30T20:33:25;2.45;;;1.63;;
4527;SDS011;62320;51.520;6.818;2022-08-30T20:38:27;1.88;;;1.27;;
4527;SDS011;62320;51.520;6.818;2022-08-30T20:43:32;2.30;;;1.40;;
4527;SDS011;62320;51.520;6.818;2022-08-30T20:48:34;3.08;;;1.50;;
4527;SDS011;62320;51.520;6.818;2022-08-30T20:53:36;1.88;;;1.42;;
4527;SDS011;62320;51.520;6.818;2022-08-30T20:58:38;1.98;;;1.67;;
4527;SDS011;62320;51.520;6.818;2022-08-30T21:03:40;1.95;;;1.52;;
4527;SDS011;62320;51.520;6.818;2022-08-30T21:08:43;2.38;;;1.30;;
4527;SDS011;62320;51.520;6.818;2022-08-30T21:13:45;3.70;;;1.50;;
4527;SDS011;62320;51.520;6.818;2022-08-30T21:18:48;3.97;;;1.50;;
4527;SDS011;62320;51.520;6.818;2022-08-30T21:23:50;2.13;;;1.42;;
4527;SDS011;62320;51.520;6.818;2022-08-30T21:28:53;3.10;;;1.45;;
4527;SDS011;62320;51.520;6.818;2022-08-30T21:33:55;2.47;;;1.48;;
4527;SDS011;62320;51.520;6.818;2022-08-30T21:38:57;2.42;;;1.30;;
4527;SDS011;62320;51.520;6.818;2022-08-30T21:44:02;2.13;;;1.27;;
4527;SDS011;62320;51.520;6.818;2022-08-30T21:49:06;2.58;;;1.40;;
4527;SDS011;62320;51.520;6.818;2022-08-30T21:54:11;3.90;;;1.50;;
4527;SDS011;62320;51.520;6.818;2022-08-30T21:59:14;2.40;;;1.63;;
4527;SDS011;62320;51.520;6.818;2022-08-30T22:04:16;3.67;;;1.40;;
4527;SDS011;62320;51.520;6.818;2022-08-30T22:09:23;1.80;;;1.50;;
4527;SDS011;62320;51.520;6.818;2022-08-30T22:14:25;4.00;;;1.13;;
4527;SDS011;62320;51.520;6.818;2022-08-30T22:19:27;2.90;;;1.40;;
4527;SDS011;62320;51.520;6.818;2022-08-30T22:24:33;3.08;;;1.60;;
4527;SDS011;62320;51.520;6.818;2022-08-30T22:29:35;2.80;;;1.60;;
4527;SDS011;62320;51.520;6.818;2022-08-30T22:34:36;3.30;;;1.42;;
4527;SDS011;62320;51.520;6.818;2022-08-30T22:39:38;2.67;;;1.25;;
4527;SDS011;62320;51.520;6.818;2022-08-30T22:44:40;2.83;;;1.58;;
4527;SDS011;62320;51.520;6.818;2022-08-30T22:49:43;2.00;;;1.40;;
4527;SDS011;62320;51.520;6.818;2022-08-30T22:54:44;2.08;;;1.38;;
4527;SDS011;62320;51.520;6.818;2022-08-30T22:59:48;3.33;;;1.98;;
4527;SDS011;62320;51.520;6.818;2022-08-30T23:04:49;4.03;;;1.60;;
4527;SDS011;62320;51.520;6.818;2022-08-30T23:09:51;3.35;;;1.95;;
4527;SDS011;62320;51.520;6.818;2022-08-30T23:14:52;3.08;;;1.42;;
4527;SDS011;62320;51.520;6.818;2022-08-30T23:19:54;2.00;;;1.50;;
4527;SDS011;62320;51.520;6.818;2022-08-30T23:24:59;2.15;;;1.33;;
4527;SDS011;62320;51.520;6.818;2022-08-30T23:30:20;2.75;;;1.38;;
4527;SDS011;62320;51.520;6.818;2022-08-30T23:35:40;4.72;;;1.50;;
4527;SDS011;62320;51.520;6.818;2022-08-30T23:41:00;1.75;;;1.27;;
4527;SDS011;62320;51.520;6.818;2022-08-30T23:46:20;2.85;;;1.50;;
4527;SDS011;62320;51.520;6.818;2022-08-30T23:51:40;2.55;;;1.30;;
4527;SDS011;62320;51.520;6.818;2022-08-30T23:57:00;2.03;;;1.50;;
